Hauptseite
METAR-TAF:

METAR-TAF

Flughäfen :

Neuburg, Deutschland

Fliegerhorst Neuburg

Breite: 48-43N, Länge: 011-13E, Höhe: 380 m

Beobachtung

Neuester Wetterbericht von vor 48 Minuten, um 22:20 UTC
Wind 1 kt aus Südwest
Temperatur 12°C
Luftfeuchtigkeit 76%
Luftdruck 1018 hPa
Sichtweite 10 km oder mehr
Durchbrochene Bewölkung in der Höhe von 38000 ft

METAR: ETSN 212220Z 22001KT 9999 BKN380 12/08 Q1018 BLU+

Zeit: 01:08 (23:08 UTC)

Prognose

Neuester Wetterbericht von vor 1 Stunde und 8 Minuten, um 22:00 UTC
Gültige Prognose vom 21 um 23 UTC bis 22 um 08 UTC
Wind 3 kt aus Süd
Sichtweite 10 km oder mehr
Aufgelockert bewölkt in der Höhe von 30000 ft

TAF: ETSN 212200Z 2123/2208 17003KT 9999 NSW SCT300 BY ETGL

Wetterbeobachtungen und Prognosen von mehr als 4000 Flughäfen (METAR und TAF Bericht).

Die verfügbaren Stationen werden durch gelbe und rote Markierungen auf der Karte dargestellt.

Führen Sie die Maus auf sie, um den Namen der Station zu sehen.

Darauf klicken, um die Beobachtung von Wetterbeobachtungen und Prognosen zu sehen.

Um die Karte zu ändern : klicken Sie auf den grünen Tasten mit einem schwarzen Kreuz Zum Vergrößern, auf den grünen Button mit einem Gedankenstrich zu verkleinern, oder auf die grünen Pfeile für benachbarte Karten.


METAR-TAF: